Time;durP1;ratioP1;P1;durP2;ratioP2;P2;SDS_P1;SDS_P2;PMS_P1;PMS_P2;Temp;Humidity;BMP_temperature;BMP_pressure;BME280_temperature;BME280_humidity;BME280_pressure;Samples;Min_cycle;Max_cycle;Signal;HPM_P1;HPM_P2
2021/03/14 00:01:03;;;;;;;6.20;4.33;;;;;;;3.36;65.33;92380.50;1910117;74;21031;-79
2021/03/14 00:03:33;;;;;;;6.55;3.85;;;;;;;3.37;65.40;92361.88;1852447;77;21492;-79
2021/03/14 00:06:02;;;;;;;6.15;4.37;;;;;;;3.38;65.63;92378.20;1843721;77;21090;-80
2021/03/14 00:08:30;;;;;;;6.75;4.83;;;;;;;3.37;65.76;92365.34;1893753;74;21234;-79
2021/03/14 00:11:00;;;;;;;4.78;3.80;;;;;;;3.38;64.78;92352.09;1898685;74;21537;-79
2021/03/14 00:13:31;;;;;;;4.92;3.70;;;;;;;3.44;64.46;92342.34;1878904;76;21109;-76
2021/03/14 00:16:00;;;;;;;4.95;4.10;;;;;;;3.47;63.76;92334.30;1878378;76;21110;-78
2021/03/14 00:18:33;;;;;;;6.85;4.60;;;;;;;3.56;62.77;92332.03;1879395;76;21082;-76
2021/03/14 00:21:01;;;;;;;6.55;4.30;;;;;;;3.65;62.08;92336.50;1878937;76;21846;-76
2021/03/14 00:23:29;;;;;;;5.30;3.90;;;;;;;3.74;62.15;92334.04;1904006;74;21100;-76
2021/03/14 00:25:57;;;;;;;6.90;4.20;;;;;;;3.75;61.95;92320.78;1890175;74;21153;-77
2021/03/14 00:28:25;;;;;;;5.17;4.12;;;;;;;3.75;62.13;92307.34;1851896;77;21047;-77
2021/03/14 00:30:55;;;;;;;7.10;4.75;;;;;;;3.71;62.83;92314.05;1835505;78;21486;-77
2021/03/14 00:33:23;;;;;;;9.47;5.73;;;;;;;3.60;63.59;92301.91;1847976;77;21811;-76
2021/03/14 00:35:51;;;;;;;8.90;6.10;;;;;;;3.48;64.43;92293.41;1838718;77;21122;-76
2021/03/14 00:38:20;;;;;;;8.95;5.42;;;;;;;3.35;64.57;92290.30;1834493;78;21126;-75
2021/03/14 00:40:48;;;;;;;7.22;4.72;;;;;;;3.26;64.57;92283.12;1833506;78;21121;-76
2021/03/14 00:43:16;;;;;;;7.12;4.20;;;;;;;3.22;64.74;92289.06;1835481;78;21026;-75
2021/03/14 00:45:45;;;;;;;7.58;4.28;;;;;;;3.22;64.28;92289.83;1833318;78;21647;-76
2021/03/14 00:48:15;;;;;;;5.33;4.20;;;;;;;3.29;64.06;92279.70;1909038;74;21126;-74
2021/03/14 00:50:43;;;;;;;6.12;3.83;;;;;;;3.32;63.66;92287.78;1871494;74;21066;-78
2021/03/14 00:53:13;;;;;;;6.58;4.42;;;;;;;3.39;63.42;92266.31;1883186;74;21030;-76
2021/03/14 00:55:44;;;;;;;6.17;4.28;;;;;;;3.44;63.20;92257.11;1899470;74;21470;-76
2021/03/14 00:58:13;;;;;;;4.47;3.75;;;;;;;3.48;63.10;92259.81;1857605;74;21840;-74
2021/03/14 01:00:41;;;;;;;5.35;4.05;;;;;;;3.46;63.30;92259.41;1916817;74;21473;-74
2021/03/14 01:03:10;;;;;;;4.85;3.95;;;;;;;3.45;63.05;92249.81;1860781;74;21141;-73
2021/03/14 01:05:40;;;;;;;6.67;4.15;;;;;;;3.45;62.94;92238.48;1894104;74;21512;-75
2021/03/14 01:08:10;;;;;;;6.28;4.50;;;;;;;3.40;63.12;92247.69;1900242;74;21125;-76
2021/03/14 01:10:40;;;;;;;5.83;4.22;;;;;;;3.38;63.07;92239.80;1879215;76;22604;-75
2021/03/14 01:13:12;;;;;;;5.28;4.22;;;;;;;3.38;63.42;92247.86;1879690;74;21473;-76
2021/03/14 01:15:41;;;;;;;6.28;4.75;;;;;;;3.36;63.26;92238.84;1916681;74;21468;-77
2021/03/14 01:18:11;;;;;;;6.25;3.92;;;;;;;3.35;63.17;92228.48;1885358;74;21101;-77
2021/03/14 01:20:40;;;;;;;5.70;4.40;;;;;;;3.35;63.54;92237.89;1879107;76;21136;-77
2021/03/14 01:23:08;;;;;;;5.75;4.47;;;;;;;3.30;63.58;92234.21;1893861;74;22024;-77
2021/03/14 01:25:37;;;;;;;8.10;5.20;;;;;;;3.23;63.89;92235.52;1910139;74;21069;-77
2021/03/14 01:28:06;;;;;;;6.72;5.20;;;;;;;3.15;64.25;92227.42;1879207;76;21097;-78
2021/03/14 01:30:34;;;;;;;7.90;4.67;;;;;;;3.07;64.69;92228.55;1878986;76;21588;-77
2021/03/14 01:33:02;;;;;;;7.62;4.80;;;;;;;2.97;65.13;92216.41;1907224;74;21041;-77
2021/03/14 01:35:32;;;;;;;4.85;3.80;;;;;;;2.88;65.48;92207.35;1896721;74;21193;-77
2021/03/14 01:38:00;;;;;;;8.65;5.03;;;;;;;2.81;66.10;92201.94;1879068;76;21101;-77
2021/03/14 01:40:27;;;;;;;7.60;5.33;;;;;;;2.76;66.24;92196.94;1881893;74;21516;-76
2021/03/14 01:42:55;;;;;;;9.18;5.12;;;;;;;2.65;66.53;92196.30;1916644;74;21034;-77
2021/03/14 01:45:25;;;;;;;9.33;5.50;;;;;;;2.55;66.91;92190.28;1883713;74;21482;-75
2021/03/14 01:47:53;;;;;;;7.95;5.60;;;;;;;2.47;66.79;92177.97;1879127;76;21777;-74
2021/03/14 01:50:24;;;;;;;6.58;4.58;;;;;;;2.46;67.29;92171.08;1878959;76;21050;-75
2021/03/14 01:52:53;;;;;;;8.15;5.10;;;;;;;2.48;66.86;92174.72;1887474;74;21054;-75
2021/03/14 01:55:22;;;;;;;9.35;5.42;;;;;;;2.56;66.73;92174.98;1915946;74;21019;-75
2021/03/14 01:57:53;;;;;;;10.70;5.83;;;;;;;2.63;66.84;92181.70;1851822;77;21066;-76
2021/03/14 02:00:24;;;;;;;7.72;4.75;;;;;;;2.63;66.56;92169.08;1905297;74;21367;-73
2021/03/14 02:02:52;;;;;;;7.30;4.85;;;;;;;2.70;66.17;92163.53;1876850;74;21081;-74
2021/03/14 02:05:21;;;;;;;6.40;4.60;;;;;;;2.80;65.14;92154.77;1877389;74;21122;-77
2021/03/14 02:07:51;;;;;;;6.10;4.37;;;;;;;2.90;65.04;92159.43;1905570;74;21269;-74
2021/03/14 02:10:23;;;;;;;6.60;3.95;;;;;;;2.97;65.01;92176.13;1850838;77;21125;-80
2021/03/14 02:13:02;;;;;;;5.58;4.00;;;;;;;3.01;64.21;92164.27;1915457;74;21309;-77
2021/03/14 02:15:30;;;;;;;9.13;5.15;;;;;;;3.04;64.15;92159.46;1883175;74;21486;-78
2021/03/14 02:18:01;;;;;;;6.05;4.10;;;;;;;3.04;64.80;92175.58;1876382;74;34066;-81
2021/03/14 02:20:31;;;;;;;6.60;4.87;;;;;;;3.02;64.40;92179.23;1888276;74;21188;-80
2021/03/14 02:23:26;;;;;;;6.05;4.40;;;;;;;2.99;65.59;92177.88;1849476;77;21169;-79
2021/03/14 02:26:07;;;;;;;6.15;4.92;;;;;;;2.95;65.73;92167.11;1841918;77;22245;-80
2021/03/14 02:28:36;;;;;;;6.50;4.53;;;;;;;2.90;66.37;92171.52;1837530;78;21042;-80
2021/03/14 02:31:06;;;;;;;7.00;4.17;;;;;;;2.88;67.00;92155.77;1832233;78;21054;-78
2021/03/14 02:33:37;;;;;;;5.58;3.95;;;;;;;2.85;66.54;92156.51;1834846;78;21051;-79
2021/03/14 02:36:08;;;;;;;6.25;4.28;;;;;;;2.81;66.76;92157.06;1886369;74;21433;-78
2021/03/14 02:38:36;;;;;;;6.20;4.25;;;;;;;2.76;66.50;92153.41;1900912;74;21360;-79
2021/03/14 02:41:06;;;;;;;7.72;4.40;;;;;;;2.74;66.56;92148.21;1886625;74;21041;-78
2021/03/14 02:43:34;;;;;;;6.08;3.55;;;;;;;2.71;66.53;92151.64;1916670;74;21098;-78
2021/03/14 02:46:02;;;;;;;4.28;3.50;;;;;;;2.68;65.94;92141.88;1867351;76;21145;-78
2021/03/14 02:48:30;;;;;;;4.92;3.62;;;;;;;2.73;65.45;92138.62;1883113;76;21160;-78
2021/03/14 02:51:00;;;;;;;5.35;4.03;;;;;;;2.77;65.77;92141.52;1884191;76;21568;-78
2021/03/14 02:53:28;;;;;;;4.70;3.87;;;;;;;2.76;65.98;92139.98;1850121;76;21097;-78
2021/03/14 02:55:56;;;;;;;7.20;4.25;;;;;;;2.71;66.36;92130.97;1847378;76;21073;-78
2021/03/14 02:58:24;;;;;;;5.50;3.70;;;;;;;2.66;66.32;92136.67;1885343;76;21026;-78
2021/03/14 03:00:52;;;;;;;4.75;3.70;;;;;;;2.61;66.66;92133.78;1883640;76;21460;-77
2021/03/14 03:03:24;;;;;;;4.83;3.27;;;;;;;2.55;66.97;92138.53;1837378;76;21407;-77
2021/03/14 03:05:59;;;;;;;5.65;3.58;;;;;;;2.48;67.09;92143.28;1832255;77;21189;-78
2021/03/14 03:08:30;;;;;;;3.65;2.58;;;;;;;2.42;67.46;92147.48;1859505;76;21145;-76
2021/03/14 03:11:06;;;;;;;7.25;4.25;;;;;;;2.36;67.36;92149.73;1876164;76;21129;-78
2021/03/14 03:13:35;;;;;;;4.42;3.60;;;;;;;2.31;67.78;92142.63;1876464;76;21429;-78
2021/03/14 03:16:05;;;;;;;4.80;3.27;;;;;;;2.26;67.71;92143.75;1822721;76;22618;-78
2021/03/14 03:18:33;;;;;;;7.08;3.95;;;;;;;2.21;68.35;92143.31;1861252;76;21038;-76
2021/03/14 03:21:02;;;;;;;7.30;4.20;;;;;;;2.14;68.63;92134.64;1876331;75;21640;-77
2021/03/14 03:23:30;;;;;;;8.00;4.70;;;;;;;2.09;69.23;92125.61;1876572;76;21525;-77
2021/03/14 03:26:01;;;;;;;11.55;6.78;;;;;;;2.02;69.56;92127.67;1876428;76;21117;-77
2021/03/14 03:28:29;;;;;;;9.25;4.92;;;;;;;1.98;69.94;92127.45;1876668;76;22302;-77
2021/03/14 03:30:57;;;;;;;7.25;4.45;;;;;;;1.91;70.37;92124.91;1876368;76;21169;-76
2021/03/14 03:33:25;;;;;;;5.85;4.37;;;;;;;1.86;70.50;92123.16;1876324;75;21164;-78
2021/03/14 03:35:53;;;;;;;7.53;4.30;;;;;;;1.83;70.36;92116.62;1876448;76;21053;-75
2021/03/14 03:38:21;;;;;;;7.62;4.58;;;;;;;1.84;70.37;92114.70;1876510;75;21042;-76
2021/03/14 03:40:50;;;;;;;8.15;4.60;;;;;;;1.83;70.53;92107.23;1876555;76;21406;-77
2021/03/14 03:43:28;;;;;;;10.58;5.37;;;;;;;1.78;70.68;92108.16;1876184;76;21611;-76
2021/03/14 03:45:57;;;;;;;5.35;4.28;;;;;;;1.75;70.69;92104.88;1876420;75;21438;-76
2021/03/14 03:48:31;;;;;;;4.78;3.47;;;;;;;1.71;70.28;92107.53;1876622;76;21046;-77
2021/03/14 03:51:00;;;;;;;6.17;4.37;;;;;;;1.72;69.98;92105.05;1876175;76;21207;-77
2021/03/14 03:53:28;;;;;;;6.80;4.42;;;;;;;1.76;69.80;92093.78;1876483;76;21137;-77
2021/03/14 03:55:55;;;;;;;14.65;9.18;;;;;;;1.80;69.30;92089.78;1876565;75;21105;-78
2021/03/14 03:58:26;;;;;;;11.83;8.08;;;;;;;1.85;68.67;92078.16;1820154;78;21071;-79
2021/03/14 04:00:54;;;;;;;4.67;4.00;;;;;;;1.84;69.49;92091.92;1874801;75;21172;-77
2021/03/14 04:03:22;;;;;;;3.33;2.80;;;;;;;1.76;69.38;92084.97;1895048;74;21126;-78
2021/03/14 04:05:56;;;;;;;6.55;5.00;;;;;;;1.77;67.69;92077.13;1878987;76;22322;-74
2021/03/14 04:08:25;;;;;;;17.07;9.55;;;;;;;1.85;69.38;92088.88;1855234;76;21672;-76
2021/03/14 04:10:54;;;;;;;13.88;7.80;;;;;;;1.72;70.74;92080.16;1879193;76;21037;-76
2021/03/14 04:13:23;;;;;;;12.98;7.03;;;;;;;1.57;70.25;92099.38;1879125;76;21595;-76
2021/03/14 04:15:51;;;;;;;14.23;7.25;;;;;;;1.52;70.10;92093.02;1907527;74;21069;-80
2021/03/14 04:18:19;;;;;;;9.90;5.30;;;;;;;1.53;70.16;92091.88;1882572;74;21787;-75
2021/03/14 04:20:49;;;;;;;9.70;5.80;;;;;;;1.54;68.47;92078.09;1842165;74;21105;-77
2021/03/14 04:23:20;;;;;;;8.10;5.05;;;;;;;1.64;68.65;92080.10;1913542;74;21750;-77
2021/03/14 04:25:51;;;;;;;10.90;6.67;;;;;;;1.69;68.29;92069.05;1879306;76;21591;-78
2021/03/14 04:28:19;;;;;;;9.30;5.53;;;;;;;1.73;68.51;92070.42;1879060;76;21093;-76
2021/03/14 04:30:47;;;;;;;11.25;7.15;;;;;;;1.68;69.21;92072.86;1905131;74;21804;-77
2021/03/14 04:33:15;;;;;;;10.38;6.55;;;;;;;1.59;70.20;92064.38;1899331;74;21062;-79
2021/03/14 04:35:44;;;;;;;10.18;6.28;;;;;;;1.46;70.67;92065.80;1888287;74;21476;-77
2021/03/14 04:38:13;;;;;;;9.28;6.30;;;;;;;1.35;71.39;92068.95;1916031;74;21066;-76
2021/03/14 04:40:41;;;;;;;8.20;5.75;;;;;;;1.24;71.86;92070.19;1879205;76;21037;-76
2021/03/14 04:43:10;;;;;;;7.87;6.12;;;;;;;1.11;72.37;92060.34;1879196;76;21568;-75
2021/03/14 04:45:39;;;;;;;10.43;7.33;;;;;;;1.03;72.79;92056.05;1901805;74;21102;-76
2021/03/14 04:48:07;;;;;;;12.58;7.83;;;;;;;0.97;73.15;92058.85;1902467;74;21122;-75
2021/03/14 04:50:37;;;;;;;13.65;7.55;;;;;;;0.91;73.12;92048.30;1879214;76;21205;-75
2021/03/14 04:53:05;;;;;;;14.10;8.90;;;;;;;0.89;72.85;92052.66;1879198;76;21011;-76
2021/03/14 04:55:34;;;;;;;12.15;8.43;;;;;;;0.89;73.46;92041.19;1915062;74;21356;-76
2021/03/14 04:58:02;;;;;;;15.90;10.65;;;;;;;0.85;73.47;92049.19;1865229;74;21153;-77
2021/03/14 05:00:30;;;;;;;12.85;8.63;;;;;;;0.83;73.56;92047.45;1838688;77;21141;-76
2021/03/14 05:02:59;;;;;;;10.50;6.58;;;;;;;0.82;73.26;92043.80;1836828;77;21205;-76
2021/03/14 05:05:28;;;;;;;10.98;7.83;;;;;;;0.87;72.68;92050.94;1845825;77;21142;-78
2021/03/14 05:07:58;;;;;;;9.50;6.45;;;;;;;0.92;72.75;92050.59;1856591;77;21611;-79
2021/03/14 05:10:26;;;;;;;6.78;3.87;;;;;;;0.95;72.36;92041.83;1857152;77;21066;-77
2021/03/14 05:12:55;;;;;;;7.55;4.40;;;;;;;1.06;70.34;92035.82;1895082;74;21473;-79
2021/03/14 05:15:23;;;;;;;5.00;3.40;;;;;;;1.28;69.04;92028.17;1888562;74;21062;-77
2021/03/14 05:17:51;;;;;;;2.60;2.40;;;;;;;1.51;68.41;92031.98;1850257;74;21200;-77
2021/03/14 05:20:21;;;;;;;7.15;4.33;;;;;;;1.74;66.11;92013.57;1843080;77;21343;-76
2021/03/14 05:22:50;;;;;;;8.23;4.33;;;;;;;2.01;67.15;92033.64;1916669;74;21037;-76
2021/03/14 05:25:19;;;;;;;4.45;3.17;;;;;;;2.03;65.18;92025.20;1886597;74;21557;-76
2021/03/14 05:27:52;;;;;;;6.78;4.17;;;;;;;2.15;63.97;92022.99;1879212;76;21121;-77
2021/03/14 05:30:27;;;;;;;6.47;4.20;;;;;;;2.40;63.89;92021.74;1879199;76;21094;-76
2021/03/14 05:32:57;;;;;;;5.67;3.65;;;;;;;2.58;63.08;92027.18;1886912;74;21358;-77
2021/03/14 05:35:29;;;;;;;5.17;4.00;;;;;;;2.79;63.34;92041.25;1916496;74;21058;-75
2021/03/14 05:37:59;;;;;;;5.58;3.25;;;;;;;2.92;62.99;92049.72;1879177;76;21106;-74
2021/03/14 05:40:29;;;;;;;3.40;2.80;;;;;;;2.98;62.52;92052.23;1910190;74;21552;-80
2021/03/14 05:42:58;;;;;;;5.97;3.45;;;;;;;3.07;63.23;92053.20;1876884;74;21555;-78
2021/03/14 05:45:27;;;;;;;3.62;3.12;;;;;;;3.07;63.21;92071.42;1848528;77;22207;-79
2021/03/14 05:47:57;;;;;;;5.08;2.72;;;;;;;3.05;63.45;92076.42;1841924;77;21071;-83
2021/03/14 05:50:28;;;;;;;4.30;3.12;;;;;;;3.02;64.74;92058.37;1837517;78;21035;-79
2021/03/14 05:52:59;;;;;;;3.60;2.90;;;;;;;2.95;66.02;92073.70;1910845;75;21046;-81
2021/03/14 05:55:27;;;;;;;4.03;3.17;;;;;;;2.87;66.62;92084.42;1862044;75;21137;-80
2021/03/14 05:57:55;;;;;;;3.90;3.35;;;;;;;2.83;68.86;92068.11;1847021;77;21251;-83
2021/03/14 06:00:27;;;;;;;4.05;3.50;;;;;;;2.71;71.29;92072.45;1868247;74;21053;-77
2021/03/14 06:02:57;;;;;;;3.72;3.20;;;;;;;2.56;73.04;92076.45;1911238;74;21308;-77
2021/03/14 06:05:27;;;;;;;4.55;3.35;;;;;;;2.43;74.15;92072.55;1879171;76;21113;-78
2021/03/14 06:07:56;;;;;;;4.15;3.55;;;;;;;2.37;74.86;92095.50;1879167;76;21070;-79
2021/03/14 06:10:24;;;;;;;3.72;3.17;;;;;;;2.37;74.89;92102.20;1879050;76;21318;-78
2021/03/14 06:12:52;;;;;;;4.47;3.10;;;;;;;2.38;75.51;92098.40;1898509;74;21077;-78
2021/03/14 06:15:20;;;;;;;3.72;3.25;;;;;;;2.37;76.12;92100.87;1905959;74;21106;-78
2021/03/14 06:17:49;;;;;;;7.33;4.47;;;;;;;2.36;76.76;92110.83;1879128;76;21117;-75
2021/03/14 06:20:44;;;;;;;6.08;4.03;;;;;;;2.36;77.82;92106.04;1879150;76;21121;-76
2021/03/14 06:23:15;;;;;;;4.72;3.33;;;;;;;2.35;77.95;92100.48;1916887;74;21351;-78
2021/03/14 06:25:47;;;;;;;6.95;3.55;;;;;;;2.34;78.51;92095.70;1884050;74;21113;-78
2021/03/14 06:28:15;;;;;;;2.98;2.30;;;;;;;2.34;78.78;92086.31;1879077;76;21050;-76
2021/03/14 06:30:44;;;;;;;3.27;2.95;;;;;;;2.35;79.58;92081.70;1879015;76;21608;-78
2021/03/14 06:33:18;;;;;;;2.77;2.58;;;;;;;2.35;79.58;92076.34;1879382;76;21484;-78
2021/03/14 06:35:53;;;;;;;4.92;3.05;;;;;;;2.32;79.92;92078.43;1878827;76;21125;-79
2021/03/14 06:38:31;;;;;;;3.70;3.08;;;;;;;2.27;80.70;92075.54;1879380;76;21480;-78
2021/03/14 06:41:11;;;;;;;4.35;2.92;;;;;;;2.23;81.52;92080.12;1878787;76;21110;-78
2021/03/14 06:43:47;;;;;;;3.00;2.70;;;;;;;2.23;82.02;92064.02;1878698;76;21137;-77
2021/03/14 06:46:27;;;;;;;5.30;2.62;;;;;;;2.28;82.04;92065.00;1901743;74;21030;-78
2021/03/14 06:49:17;;;;;;;3.35;2.62;;;;;;;2.29;82.19;92051.01;1898095;74;21475;-78
2021/03/14 06:51:49;;;;;;;4.17;3.58;;;;;;;2.41;82.79;92044.00;1893319;74;21038;-76
2021/03/14 06:54:39;;;;;;;4.08;3.00;;;;;;;2.65;83.19;92035.84;1907620;74;21564;-77
2021/03/14 06:57:17;;;;;;;4.05;2.98;;;;;;;2.90;82.69;92022.49;1879040;76;21156;-78
2021/03/14 06:59:53;;;;;;;4.85;3.87;;;;;;;3.20;81.60;92030.22;1879409;76;21192;-76
2021/03/14 07:02:30;;;;;;;4.10;3.30;;;;;;;3.42;81.55;92030.98;1916978;74;22120;-76
2021/03/14 07:05:03;;;;;;;;;;;;;;;3.59;79.87;92028.11;1887483;74;21125;-76
2021/03/14 07:07:34;;;;;;;7.75;5.40;;;;;;;3.72;79.88;92029.83;1904222;74;20463;-77
2021/03/14 07:10:09;;;;;;;4.58;3.45;;;;;;;3.89;79.06;92008.30;1899278;74;21030;-77
2021/03/14 07:12:44;;;;;;;4.47;3.00;;;;;;;4.11;78.42;92013.06;1879161;76;21136;-78
2021/03/14 07:15:20;;;;;;;;;;;;;;;4.25;76.31;92016.86;1881844;76;21557;-78
2021/03/14 07:17:56;;;;;;;2.90;2.62;;;;;;;4.39;76.13;92012.78;1879535;76;20589;-77
2021/03/14 07:20:28;;;;;;;3.55;2.77;;;;;;;4.71;73.87;92014.59;1916843;74;21014;-79
2021/03/14 07:23:08;;;;;;;3.87;3.20;;;;;;;5.36;72.83;92015.75;1886428;74;21050;-78
2021/03/14 07:25:43;;;;;;;4.83;3.70;;;;;;;5.36;72.83;92015.75;1828479;77;21448;-76
2021/03/14 07:28:12;;;;;;;4.85;2.87;;;;;;;5.87;70.43;92014.20;1818966;76;22609;-78
2021/03/14 07:30:40;;;;;;;4.75;3.30;;;;;;;6.11;68.53;92016.50;1891003;75;21125;-77
2021/03/14 07:33:08;;;;;;;3.10;2.80;;;;;;;6.16;67.62;92012.01;1879406;76;21133;-79
2021/03/14 07:35:36;;;;;;;4.20;3.15;;;;;;;6.07;66.94;92011.72;1794059;79;21045;-76
2021/03/14 07:38:05;;;;;;;16.60;7.95;;;;;;;5.88;67.20;92002.23;1793970;79;21135;-78
2021/03/14 07:40:32;;;;;;;13.48;7.30;;;;;;;5.75;67.62;92003.88;1815027;79;21361;-75
2021/03/14 07:43:01;;;;;;;11.68;5.33;;;;;;;5.62;67.79;92006.31;1815714;78;21120;-77
2021/03/14 07:45:31;;;;;;;4.87;3.62;;;;;;;5.42;67.99;91993.95;1820255;77;21658;-78
2021/03/14 07:48:00;;;;;;;8.45;4.60;;;;;;;5.26;68.72;91989.63;1820374;78;21168;-78
2021/03/14 07:50:32;;;;;;;6.72;4.45;;;;;;;5.19;70.16;91993.16;1820218;78;21191;-78
2021/03/14 07:53:10;;;;;;;5.45;3.35;;;;;;;5.17;70.84;91996.05;1820055;78;21127;-76
2021/03/14 07:55:38;;;;;;;4.65;3.65;;;;;;;5.04;70.45;91991.69;1819998;78;21144;-77
2021/03/14 07:58:13;;;;;;;5.72;3.55;;;;;;;4.88;71.08;91998.91;1820247;78;21124;-77
2021/03/14 08:00:42;;;;;;;6.00;3.65;;;;;;;4.89;71.36;91999.11;1820348;78;21041;-76
2021/03/14 08:03:12;;;;;;;7.80;4.70;;;;;;;4.90;70.62;91990.45;1820348;78;21558;-77
2021/03/14 08:05:46;;;;;;;4.47;3.72;;;;;;;4.81;71.67;91992.21;1820334;78;21870;-77
2021/03/14 08:08:28;;;;;;;5.67;3.72;;;;;;;4.71;71.29;92003.23;1820221;78;21489;-75
2021/03/14 08:10:56;;;;;;;4.40;4.00;;;;;;;4.63;72.36;91996.36;1820263;78;21507;-77
2021/03/14 08:13:35;;;;;;;4.78;3.40;;;;;;;4.53;72.92;91982.36;1820255;78;21489;-76
2021/03/14 08:16:05;;;;;;;6.00;4.30;;;;;;;4.53;73.02;91991.20;1820323;78;21458;-77
2021/03/14 08:18:46;;;;;;;5.33;3.70;;;;;;;4.46;73.66;92000.64;1820338;78;21367;-78
2021/03/14 08:21:17;;;;;;;8.75;4.28;;;;;;;4.46;73.66;92000.64;1820316;78;21564;-76
2021/03/14 08:23:52;;;;;;;4.78;4.00;;;;;;;4.45;73.98;91992.97;1889534;76;21047;-77
2021/03/14 08:26:32;;;;;;;3.83;3.08;;;;;;;4.44;74.54;91980.09;1829286;76;21128;-76
2021/03/14 08:29:00;;;;;;;5.37;4.30;;;;;;;4.45;74.99;91991.05;1858380;76;21550;-75
2021/03/14 08:31:48;;;;;;;3.58;3.27;;;;;;;4.48;75.87;91992.96;1884223;76;21347;-77
2021/03/14 08:34:21;;;;;;;3.47;2.90;;;;;;;4.50;74.75;91991.97;1861433;74;21145;-78
2021/03/14 08:36:50;;;;;;;3.25;2.95;;;;;;;4.55;74.09;91986.20;1828888;76;21056;-79
2021/03/14 08:39:23;;;;;;;4.33;3.50;;;;;;;4.55;74.09;91986.20;1873440;76;21170;-78
2021/03/14 08:42:01;;;;;;;4.03;3.58;;;;;;;4.58;74.49;91979.25;1917188;74;21066;-77
2021/03/14 08:44:39;;;;;;;4.12;3.45;;;;;;;4.59;74.87;91987.53;1875674;74;21352;-77
2021/03/14 08:47:17;;;;;;;3.47;3.00;;;;;;;4.54;75.25;91991.37;1839226;77;21107;-79
2021/03/14 08:49:55;;;;;;;6.00;3.90;;;;;;;4.53;75.46;91995.81;1846698;76;21189;-78
2021/03/14 08:52:27;;;;;;;3.47;3.15;;;;;;;4.49;75.30;91989.69;1863056;75;21189;-78
2021/03/14 08:55:00;;;;;;;3.33;2.95;;;;;;;4.48;75.52;92001.62;1895581;75;21485;-79
2021/03/14 08:57:31;;;;;;;4.85;2.35;;;;;;;4.45;76.19;91977.59;1803355;79;21543;-79
2021/03/14 09:00:02;;;;;;;3.77;3.22;;;;;;;4.45;76.19;91977.59;1895331;75;21508;-79
2021/03/14 09:02:34;;;;;;;3.40;3.10;;;;;;;4.45;76.05;92008.54;1882210;74;21446;-78
2021/03/14 09:05:24;;;;;;;3.65;3.08;;;;;;;4.41;76.38;92006.44;1818012;78;21464;-79
2021/03/14 09:08:00;;;;;;;3.17;2.50;;;;;;;4.34;76.51;91998.39;1841321;77;21113;-78
2021/03/14 09:10:35;;;;;;;2.42;2.22;;;;;;;4.23;76.81;92019.19;1866745;76;21346;-78
2021/03/14 09:13:04;;;;;;;1.70;1.60;;;;;;;4.14;76.71;92009.59;1851695;76;21079;-78
2021/03/14 09:15:49;;;;;;;1.65;1.55;;;;;;;4.16;76.89;92012.47;1875323;75;21087;-77
2021/03/14 09:18:29;;;;;;;5.17;2.50;;;;;;;4.19;76.86;92009.77;1843919;77;21537;-78
2021/03/14 09:21:03;;;;;;;2.05;1.70;;;;;;;4.24;78.01;91994.56;1873453;76;21023;-78
2021/03/14 09:23:42;;;;;;;4.83;2.00;;;;;;;4.28;77.66;91999.94;1836586;77;22265;-79
2021/03/14 09:26:13;;;;;;;2.20;2.00;;;;;;;4.31;77.29;92009.92;1808088;76;21099;-79
2021/03/14 09:28:44;;;;;;;2.65;2.22;;;;;;;4.40;78.43;92008.95;1806530;79;21045;-78
2021/03/14 09:31:16;;;;;;;2.70;2.27;;;;;;;4.46;77.64;92018.14;1879793;76;21057;-78
2021/03/14 09:33:47;;;;;;;2.55;2.35;;;;;;;4.52;77.45;92014.48;1841859;76;21186;-79
2021/03/14 09:36:18;;;;;;;2.35;2.15;;;;;;;4.60;77.12;92017.33;1822740;77;21574;-79
2021/03/14 09:38:59;;;;;;;2.27;1.98;;;;;;;4.66;77.14;92016.33;1872299;76;21116;-78
2021/03/14 09:41:44;;;;;;;1.52;1.42;;;;;;;4.70;75.81;91998.23;1883208;76;21083;-77
2021/03/14 09:44:18;;;;;;;1.65;1.50;;;;;;;4.69;74.69;92006.89;1878684;76;21057;-75
2021/03/14 09:47:00;;;;;;;1.33;1.20;;;;;;;4.69;74.47;92000.16;1881599;76;21070;-75
2021/03/14 09:49:40;;;;;;;2.42;1.40;;;;;;;4.63;74.10;92013.86;1882381;76;21828;-77
2021/03/14 09:52:13;;;;;;;1.75;1.60;;;;;;;4.54;74.82;92008.88;1842197;77;21301;-76
2021/03/14 09:54:43;;;;;;;1.87;1.42;;;;;;;4.49;75.06;91998.52;1850592;77;21048;-77
2021/03/14 09:57:12;;;;;;;2.33;1.65;;;;;;;4.52;75.42;92015.83;1841012;76;21147;-79
2021/03/14 09:59:42;;;;;;;2.00;1.77;;;;;;;4.52;75.41;92015.24;1858951;75;21050;-78
2021/03/14 10:02:25;;;;;;;1.70;1.40;;;;;;;4.53;75.81;92008.70;1847491;77;21478;-78
2021/03/14 10:05:12;;;;;;;1.82;1.67;;;;;;;4.53;75.94;92019.46;1840668;76;21079;-78
2021/03/14 10:07:42;;;;;;;1.45;1.30;;;;;;;4.55;75.48;92028.48;1846810;75;21034;-79
2021/03/14 10:10:13;;;;;;;1.45;1.35;;;;;;;4.55;75.48;92028.48;1906109;75;21050;-76
2021/03/14 10:12:43;;;;;;;1.32;1.22;;;;;;;4.47;74.96;92019.67;1871429;76;21038;-78
2021/03/14 10:15:15;;;;;;;1.32;1.22;;;;;;;4.47;74.96;92019.67;1883810;75;21363;-79
2021/03/14 10:17:44;;;;;;;2.05;1.52;;;;;;;4.45;75.15;92021.23;1867694;75;21078;-78
2021/03/14 10:20:14;;;;;;;1.67;1.57;;;;;;;4.44;75.74;92023.16;1844626;76;21038;-79
2021/03/14 10:22:43;;;;;;;1.35;1.25;;;;;;;4.44;76.16;92023.16;1814722;78;21035;-79
2021/03/14 10:25:32;;;;;;;2.10;1.77;;;;;;;4.44;76.05;92016.44;1833333;78;21279;-81
2021/03/14 10:28:11;;;;;;;1.40;1.30;;;;;;;4.45;76.11;92023.92;1815012;77;21153;-77
2021/03/14 10:33:31;;;;;;;1.40;1.30;;;;;;;4.44;75.59;92032.58;1803857;79;21044;-76
2021/03/14 10:36:13;;;;;;;1.60;1.50;;;;;;;4.43;75.08;92026.98;1818074;78;21063;-78
2021/03/14 10:39:05;;;;;;;1.40;1.30;;;;;;;4.52;75.14;91995.64;1854692;75;21449;-77
2021/03/14 10:41:45;;;;;;;1.45;1.32;;;;;;;4.52;75.14;91995.64;1882465;75;21275;-80
2021/03/14 10:44:22;;;;;;;2.87;2.12;;;;;;;4.59;75.34;92015.80;1906968;75;21050;-80
2021/03/14 10:46:54;;;;;;;2.90;1.52;;;;;;;4.67;75.43;92025.38;1850116;77;21145;-77
2021/03/14 10:49:29;;;;;;;1.70;1.60;;;;;;;4.77;74.75;92007.63;1835508;77;21473;-80
2021/03/14 10:52:00;;;;;;;1.20;1.10;;;;;;;4.83;75.23;92016.84;1819701;77;21102;-79
2021/03/14 10:54:38;;;;;;;1.72;1.60;;;;;;;4.90;75.29;91998.53;1867680;74;22378;-82
2021/03/14 10:57:14;;;;;;;2.00;1.57;;;;;;;4.97;74.89;92005.23;1894516;74;21126;-79
2021/03/14 10:59:44;;;;;;;1.62;1.52;;;;;;;5.06;75.06;91992.08;1880450;75;21109;-81
2021/03/14 11:02:33;;;;;;;2.45;2.08;;;;;;;5.20;74.32;92006.05;1905874;75;21604;-78
2021/03/14 11:07:34;;;;;;;1.70;1.60;;;;;;;5.27;73.97;91992.53;1889889;76;22753;-82
2021/03/14 11:10:28;;;;;;;1.90;1.80;;;;;;;5.21;73.57;92001.59;1786444;80;21245;-82
2021/03/14 11:12:55;;;;;;;3.00;2.22;;;;;;;5.18;74.49;92015.86;1810365;78;21143;-82
2021/03/14 11:15:31;;;;;;;2.58;2.30;;;;;;;5.08;74.38;91989.19;1769789;80;21153;-82
2021/03/14 11:18:03;;;;;;;2.80;2.20;;;;;;;5.08;74.38;91989.19;1765644;79;21083;-79
2021/03/14 11:20:37;;;;;;;4.62;2.67;;;;;;;5.10;74.80;91998.97;1767476;76;21589;-82
2021/03/14 11:23:07;;;;;;;4.03;2.47;;;;;;;5.07;74.58;91992.25;1831283;78;21122;-81
2021/03/14 11:25:36;;;;;;;2.90;2.40;;;;;;;5.04;74.96;92003.81;1775181;80;21600;-82
2021/03/14 11:28:09;;;;;;;2.45;2.08;;;;;;;5.04;75.25;91997.08;1813303;77;21192;-81
2021/03/14 11:30:36;;;;;;;2.87;2.52;;;;;;;5.02;75.36;91989.98;1740607;81;21182;-82
2021/03/14 11:33:05;;;;;;;5.12;2.47;;;;;;;5.01;75.48;91993.27;1768941;80;21147;-80
2021/03/14 11:35:38;;;;;;;3.10;2.75;;;;;;;5.00;75.71;91995.78;1791150;77;21071;-79
2021/03/14 11:38:23;;;;;;;4.15;2.67;;;;;;;4.96;75.79;91992.31;1847359;76;21275;-79
2021/03/14 11:40:56;;;;;;;2.92;2.62;;;;;;;4.96;75.90;91997.70;1748222;80;21564;-80
2021/03/14 11:43:27;;;;;;;5.05;2.80;;;;;;;4.96;76.09;91986.92;1725333;80;21161;-81
2021/03/14 11:45:57;;;;;;;3.67;2.58;;;;;;;4.97;76.18;91982.33;1784509;79;21136;-79
2021/03/14 11:48:25;;;;;;;3.00;2.70;;;;;;;4.97;76.32;91986.38;1795752;78;21615;-82
2021/03/14 11:50:55;;;;;;;3.50;2.60;;;;;;;4.93;76.31;91982.91;1786652;79;21549;-80
2021/03/14 11:53:23;;;;;;;4.75;2.90;;;;;;;4.91;76.31;91992.73;1788002;79;21149;-80
2021/03/14 11:55:53;;;;;;;2.85;2.65;;;;;;;4.91;76.64;91981.97;1787429;79;21509;-80
2021/03/14 11:58:23;;;;;;;3.83;2.77;;;;;;;4.90;76.79;91993.14;1787948;79;21054;-79
2021/03/14 12:00:51;;;;;;;2.45;2.25;;;;;;;4.88;76.83;91978.13;1787977;79;21058;-80
2021/03/14 12:03:19;;;;;;;4.72;3.05;;;;;;;4.90;76.60;91988.52;1778292;79;21368;-79
2021/03/14 12:05:49;;;;;;;3.22;2.55;;;;;;;4.91;76.31;91989.28;1763151;80;21116;-80
2021/03/14 12:08:26;;;;;;;6.95;2.95;;;;;;;4.91;76.31;91989.28;1763398;80;21195;-80